createdAt,value
2023-06-07T00:00:27.689Z,5.50
2023-06-07T00:01:27.668Z,6.30
2023-06-07T00:02:42.392Z,5.70
2023-06-07T00:03:28.977Z,5.60
2023-06-07T00:04:27.753Z,5.60
2023-06-07T00:05:27.640Z,6.10
2023-06-07T00:06:27.614Z,5.40
2023-06-07T00:07:27.722Z,6.10
2023-06-07T00:08:27.593Z,5.60
2023-06-07T00:09:27.588Z,5.90
2023-06-07T00:10:27.573Z,6.00
2023-06-07T00:11:27.562Z,5.30
2023-06-07T00:12:27.553Z,5.50
2023-06-07T00:13:27.546Z,5.50
2023-06-07T00:14:27.528Z,5.70
2023-06-07T00:15:27.525Z,5.50
2023-06-07T00:16:27.511Z,5.70
2023-06-07T00:17:27.581Z,5.90
2023-06-07T00:18:27.533Z,6.20
2023-06-07T00:19:27.478Z,6.40
2023-06-07T00:20:27.459Z,4.80
2023-06-07T00:21:27.448Z,5.60
2023-06-07T00:22:27.448Z,5.50
2023-06-07T00:23:27.558Z,5.70
2023-06-07T00:24:27.489Z,5.90
2023-06-07T00:25:27.531Z,6.00
2023-06-07T00:26:27.396Z,6.10
2023-06-07T00:27:27.379Z,5.90
2023-06-07T00:28:29.598Z,5.90
2023-06-07T00:29:27.364Z,6.40
2023-06-07T00:30:27.355Z,5.80
2023-06-07T00:31:27.423Z,5.80
2023-06-07T00:32:27.334Z,6.20
2023-06-07T00:33:27.326Z,6.20
2023-06-07T00:34:27.309Z,6.60
2023-06-07T00:35:27.309Z,5.80
2023-06-07T00:36:27.305Z,6.10
2023-06-07T00:37:27.275Z,6.50
2023-06-07T00:38:27.278Z,6.30
2023-06-07T00:39:27.276Z,7.00
2023-06-07T00:40:27.245Z,6.20
2023-06-07T00:41:27.243Z,6.40
2023-06-07T00:42:27.222Z,7.40
2023-06-07T00:43:27.211Z,6.60
2023-06-07T00:44:27.201Z,6.10
2023-06-07T00:45:27.199Z,7.90
2023-06-07T00:46:27.177Z,6.40
2023-06-07T00:47:27.249Z,6.90
2023-06-07T00:48:27.272Z,6.80
2023-06-07T00:49:27.145Z,6.10
2023-06-07T00:50:27.137Z,6.60
2023-06-07T00:51:27.137Z,6.40
2023-06-07T00:52:27.110Z,7.10
2023-06-07T00:53:27.101Z,6.10
2023-06-07T00:54:27.093Z,6.90
2023-06-07T00:55:27.099Z,6.60
2023-06-07T00:56:27.074Z,6.40
2023-06-07T00:57:27.057Z,6.50
2023-06-07T00:58:27.045Z,6.60
2023-06-07T00:59:27.035Z,6.90
2023-06-07T01:00:27.030Z,6.90
2023-06-07T01:01:27.093Z,6.10
2023-06-07T01:02:27.032Z,6.40
2023-06-07T01:03:27.052Z,6.40
2023-06-07T01:04:26.978Z,6.40
2023-06-07T01:05:26.986Z,6.40
2023-06-07T01:06:26.973Z,6.70
2023-06-07T01:07:26.969Z,6.5
2023-06-07T01:08:26.979Z,6.30
2023-06-07T01:09:27.006Z,6.00
2023-06-07T01:10:27.022Z,6.30
2023-06-07T01:11:27.211Z,6.10
2023-06-07T01:12:27.032Z,6.30
2023-06-07T01:13:26.898Z,5.80
2023-06-07T01:14:26.877Z,5.70
2023-06-07T01:15:26.861Z,5.60
2023-06-07T01:16:26.891Z,5.60
2023-06-07T01:17:26.852Z,5.60
2023-06-07T01:18:26.845Z,5.80
2023-06-07T01:19:26.816Z,5.80
2023-06-07T01:20:26.893Z,5.30
2023-06-07T01:21:26.808Z,5.50
2023-06-07T01:22:26.785Z,6.70
2023-06-07T01:23:26.807Z,5.90
2023-06-07T01:24:26.776Z,5.40
2023-06-07T01:25:26.764Z,5.10
2023-06-07T01:26:26.743Z,6.00
2023-06-07T01:27:26.752Z,6.50
2023-06-07T01:28:26.729Z,5.90
2023-06-07T01:29:26.715Z,6.90
2023-06-07T01:30:26.730Z,5.30
2023-06-07T01:31:26.731Z,5.50
2023-06-07T01:32:26.691Z,6.20
2023-06-07T01:33:26.667Z,5.90
2023-06-07T01:34:26.659Z,5.60
2023-06-07T01:35:26.746Z,5.60
2023-06-07T01:36:26.636Z,5.60
2023-06-07T01:37:26.625Z,5.70
2023-06-07T01:38:26.621Z,6.30
2023-06-07T01:39:26.595Z,5.60
2023-06-07T01:40:26.591Z,5.30
2023-06-07T01:41:26.579Z,6.30
2023-06-07T01:42:26.565Z,6.00
2023-06-07T01:43:26.574Z,5.60
2023-06-07T01:44:26.540Z,5.60
2023-06-07T01:45:26.540Z,5.20
2023-06-07T01:46:26.648Z,5.2
2023-06-07T01:47:26.604Z,6.90
2023-06-07T01:48:26.495Z,5.60
2023-06-07T01:49:26.487Z,6.40
2023-06-07T01:50:26.474Z,6.00
2023-06-07T01:51:26.458Z,6.9
2023-06-07T01:52:26.448Z,5.60
2023-06-07T01:53:26.439Z,5.90
2023-06-07T01:54:26.430Z,5.70
2023-06-07T01:55:26.422Z,6.00
2023-06-07T01:56:26.413Z,6.40
2023-06-07T01:57:26.392Z,6.00
2023-06-07T01:58:26.405Z,5.80
2023-06-07T01:59:26.468Z,5.50
2023-06-07T02:00:26.450Z,6.20
2023-06-07T02:01:26.381Z,6.30
2023-06-07T02:02:26.387Z,6.40
2023-06-07T02:03:26.333Z,6.10
2023-06-07T02:04:26.321Z,5.80
2023-06-07T02:05:26.322Z,6.10
2023-06-07T02:06:26.294Z,6.10
2023-06-07T02:07:26.283Z,6.40
2023-06-07T02:08:26.321Z,6.70
2023-06-07T02:09:26.260Z,6.10
2023-06-07T02:10:26.254Z,6.40
2023-06-07T02:11:26.242Z,6.80
2023-06-07T02:12:26.256Z,6.20
2023-06-07T02:13:26.216Z,6.10
2023-06-07T02:14:26.211Z,5.90
2023-06-07T02:15:26.221Z,6.30
2023-06-07T02:16:26.188Z,6.60
2023-06-07T02:17:26.245Z,6.30
2023-06-07T02:18:26.200Z,6.60
2023-06-07T02:19:26.156Z,5.80
2023-06-07T02:20:26.149Z,6.10
2023-06-07T02:21:26.131Z,6.10
2023-06-07T02:22:26.124Z,5.70
2023-06-07T02:23:26.137Z,5.30
2023-06-07T02:24:26.100Z,7.80
2023-06-07T02:25:26.093Z,6.00
2023-06-07T02:26:26.078Z,5.80
2023-06-07T02:27:26.075Z,5.60
2023-06-07T02:28:26.055Z,6.00
2023-06-07T02:29:26.050Z,6.00
2023-06-07T02:30:26.033Z,6.20
2023-06-07T02:31:26.085Z,5.20
2023-06-07T02:32:26.032Z,5.40
2023-06-07T02:33:26.010Z,5.30
2023-06-07T02:34:25.990Z,6.30
2023-06-07T02:35:25.977Z,5.40
2023-06-07T02:36:25.970Z,6.00
2023-06-07T02:37:25.956Z,6.30
2023-06-07T02:38:25.946Z,5.70
2023-06-07T02:39:25.937Z,6.40
2023-06-07T02:40:25.938Z,6.00
2023-06-07T02:41:25.915Z,6.30
2023-06-07T02:42:25.905Z,5.50
2023-06-07T02:43:25.914Z,5.50
2023-06-07T02:44:25.886Z,5.60
2023-06-07T02:45:25.871Z,5.7
2023-06-07T02:46:25.883Z,5.70
2023-06-07T02:47:25.879Z,5.8
2023-06-07T02:48:25.829Z,6.20
2023-06-07T02:49:25.837Z,6.60
2023-06-07T02:50:25.816Z,6.60
2023-06-07T02:51:25.804Z,5.90
2023-06-07T02:52:25.785Z,7.00
2023-06-07T02:53:25.777Z,6.30
2023-06-07T02:54:25.782Z,6.60
2023-06-07T02:55:25.810Z,6.30
2023-06-07T02:56:25.746Z,6.30
2023-06-07T02:57:25.737Z,6.30
2023-06-07T02:58:25.722Z,7.30
2023-06-07T02:59:25.714Z,7.70
2023-06-07T03:00:25.696Z,6.90
2023-06-07T03:01:25.732Z,6.30
2023-06-07T03:02:25.752Z,7.40
2023-06-07T03:03:25.834Z,6.40
2023-06-07T03:04:25.662Z,6.20
2023-06-07T03:05:25.661Z,6.50
2023-06-07T03:06:25.628Z,7.30
2023-06-07T03:07:25.625Z,7.10
2023-06-07T03:08:25.606Z,6.60
2023-06-07T03:09:25.608Z,7.20
2023-06-07T03:10:25.590Z,6.50
2023-06-07T03:11:25.576Z,6.60
2023-06-07T03:12:25.567Z,6.60
2023-06-07T03:13:25.577Z,7.00
2023-06-07T03:14:25.542Z,6.90
2023-06-07T03:15:25.549Z,6.00
2023-06-07T03:16:25.585Z,6.50
2023-06-07T03:17:25.507Z,6.20
2023-06-07T03:18:25.522Z,6.30
2023-06-07T03:19:25.534Z,6.00
2023-06-07T03:20:25.486Z,7.30
2023-06-07T03:21:25.478Z,6.20
2023-06-07T03:22:25.458Z,6.10
2023-06-07T03:23:25.505Z,5.70
2023-06-07T03:24:25.444Z,6.40
2023-06-07T03:25:25.438Z,6.00
2023-06-07T03:26:25.412Z,6.00
2023-06-07T03:27:25.433Z,6.90
2023-06-07T03:28:25.393Z,6.70
2023-06-07T03:29:25.383Z,7.30
2023-06-07T03:30:25.370Z,6.3
2023-06-07T03:31:25.447Z,6.10
2023-06-07T03:32:25.448Z,7.00
2023-06-07T03:33:25.338Z,6.60
2023-06-07T03:34:25.327Z,6.70
2023-06-07T03:35:25.351Z,6.00
2023-06-07T03:36:25.309Z,7.10
2023-06-07T03:37:25.298Z,7.80
2023-06-07T03:38:25.285Z,6.60
2023-06-07T03:39:25.275Z,7.60
2023-06-07T03:40:25.304Z,6.90
2023-06-07T03:41:25.252Z,6.80
2023-06-07T03:42:25.261Z,6.90
2023-06-07T03:43:25.247Z,7.90
2023-06-07T03:44:25.220Z,6.50
2023-06-07T03:45:25.225Z,6.40
2023-06-07T03:46:25.192Z,6.70
2023-06-07T03:47:25.232Z,6.50
2023-06-07T03:48:25.218Z,5.90
2023-06-07T03:49:25.165Z,6.30
2023-06-07T03:50:25.152Z,6.10
2023-06-07T03:51:25.167Z,7.30
2023-06-07T03:52:25.144Z,6.20
2023-06-07T03:53:25.131Z,6.6
2023-06-07T03:54:25.105Z,6.90
2023-06-07T03:55:25.100Z,6.20
2023-06-07T03:56:25.083Z,6.40
2023-06-07T03:57:25.076Z,6.40
2023-06-07T03:58:25.072Z,6.20
2023-06-07T03:59:25.061Z,6.00
2023-06-07T04:00:25.048Z,6.40
2023-06-07T04:01:25.053Z,6.90
2023-06-07T04:02:25.177Z,5.80
2023-06-07T04:03:25.093Z,6.00
2023-06-07T04:04:25.087Z,7.00
2023-06-07T04:05:24.985Z,6.00
2023-06-07T04:06:24.976Z,5.7
2023-06-07T04:07:24.990Z,6.6
2023-06-07T04:08:24.965Z,6.00
2023-06-07T04:09:24.943Z,6.3
2023-06-07T04:10:24.931Z,6.3
2023-06-07T04:11:24.924Z,7.0
2023-06-07T04:12:24.911Z,5.6
2023-06-07T04:13:24.896Z,6.00
2023-06-07T04:14:24.910Z,6.30
2023-06-07T04:15:24.880Z,5.6
2023-06-07T04:16:24.895Z,6.5
2023-06-07T04:17:24.891Z,6.7
2023-06-07T04:18:24.892Z,6.2
2023-06-07T04:19:24.848Z,6.30
2023-06-07T04:20:24.819Z,6.6
2023-06-07T04:21:24.810Z,7.8
2023-06-07T04:22:24.801Z,6.60
2023-06-07T04:23:24.856Z,5.6
2023-06-07T04:24:24.790Z,6.4
2023-06-07T04:25:24.781Z,5.9
2023-06-07T04:26:24.747Z,6.20
2023-06-07T04:27:24.743Z,5.3
2023-06-07T04:28:24.774Z,5.9
2023-06-07T04:29:24.716Z,5.30
2023-06-07T04:30:24.714Z,5.40
2023-06-07T04:31:24.748Z,5.20
2023-06-07T04:32:24.754Z,5.2
2023-06-07T04:33:24.676Z,5.2
2023-06-07T04:34:24.665Z,4.50
2023-06-07T04:35:24.754Z,5.1
2023-06-07T04:36:24.637Z,4.50
2023-06-07T04:37:24.731Z,4.90
2023-06-07T04:38:24.618Z,4.80
2023-06-07T04:39:24.700Z,4.5
2023-06-07T04:40:24.598Z,4.30
2023-06-07T04:41:24.585Z,4.40
2023-06-07T04:42:24.587Z,5.20
2023-06-07T04:43:24.606Z,4.5
2023-06-07T04:44:24.714Z,4.70
2023-06-07T04:45:24.545Z,5.6
2023-06-07T04:46:24.622Z,4.10
2023-06-07T04:47:24.543Z,4.80
2023-06-07T04:48:24.516Z,4.70
2023-06-07T04:49:24.510Z,4.70
2023-06-07T04:50:24.489Z,4.40
2023-06-07T04:51:24.472Z,4.90
2023-06-07T04:52:25.727Z,4.4
2023-06-07T04:53:24.453Z,4.50
2023-06-07T04:54:24.438Z,4.00
2023-06-07T04:55:24.456Z,4.1
2023-06-07T04:56:24.436Z,3.9
2023-06-07T04:57:24.434Z,4.20
2023-06-07T04:58:24.393Z,4.2
2023-06-07T04:59:24.379Z,3.60
2023-06-07T05:00:25.291Z,4.1
2023-06-07T05:01:24.449Z,3.90
2023-06-07T05:02:24.389Z,3.40
2023-06-07T05:03:24.348Z,3.20
2023-06-07T05:04:24.344Z,3.30
2023-06-07T05:05:24.350Z,3.40
2023-06-07T05:06:24.310Z,3.50
2023-06-07T05:07:24.307Z,3.70
2023-06-07T05:08:24.294Z,4.20
2023-06-07T05:09:24.319Z,3.4
2023-06-07T05:10:24.264Z,3.20
2023-06-07T05:11:24.279Z,3.30
2023-06-07T05:12:24.261Z,3.90
2023-06-07T05:13:24.228Z,3.40
2023-06-07T05:14:24.234Z,3.50
2023-06-07T05:15:24.208Z,3.50
2023-06-07T05:16:24.254Z,4.10
2023-06-07T05:17:24.214Z,3.50
2023-06-07T05:18:24.175Z,4.00
2023-06-07T05:19:24.187Z,3.90
2023-06-07T05:20:24.213Z,2.80
2023-06-07T05:21:24.163Z,4.20
2023-06-07T05:22:24.135Z,3.30
2023-06-07T05:23:24.207Z,4.20
2023-06-07T05:24:24.117Z,3.50
2023-06-07T05:25:24.102Z,3.70
2023-06-07T05:26:24.090Z,3.20
2023-06-07T05:27:24.104Z,3.50
2023-06-07T05:28:24.066Z,3.10
2023-06-07T05:29:24.058Z,3.10
2023-06-07T05:30:24.066Z,3.50
2023-06-07T05:31:24.174Z,3.30
2023-06-07T05:32:24.048Z,3.40
2023-06-07T05:33:24.013Z,3.40
2023-06-07T05:34:24.003Z,3.30
2023-06-07T05:35:23.985Z,3.30
2023-06-07T05:36:23.978Z,3.20
2023-06-07T05:37:23.969Z,3.80
2023-06-07T05:38:23.961Z,3.10
2023-06-07T05:39:23.954Z,3.10
2023-06-07T05:40:23.933Z,3.70
2023-06-07T05:41:23.953Z,3.50
2023-06-07T05:42:24.123Z,2.90
2023-06-07T05:43:23.944Z,3.10
2023-06-07T05:44:23.895Z,2.80
2023-06-07T05:45:23.881Z,3.90
2023-06-07T05:46:23.917Z,3.00
2023-06-07T05:47:23.890Z,3.10
2023-06-07T05:48:23.845Z,3.20
2023-06-07T05:49:23.841Z,3.20
2023-06-07T05:50:23.826Z,3.70
2023-06-07T05:51:23.845Z,3.00
2023-06-07T05:52:23.799Z,3.40
2023-06-07T05:53:23.818Z,3.30
2023-06-07T05:54:23.790Z,3.40
2023-06-07T05:55:23.773Z,2.80
2023-06-07T05:56:23.773Z,3.20
2023-06-07T05:57:23.770Z,3.70
2023-06-07T05:58:23.733Z,3.30
2023-06-07T05:59:23.759Z,3.20
2023-06-07T06:00:23.733Z,3.50
2023-06-07T06:01:23.715Z,3.20
2023-06-07T06:02:23.751Z,3.10
2023-06-07T06:03:23.759Z,3.30
2023-06-07T06:04:23.719Z,3.40
2023-06-07T06:05:23.668Z,3.30
2023-06-07T06:06:23.651Z,3.30
2023-06-07T06:07:23.647Z,3.30
2023-06-07T06:08:23.623Z,3.30
2023-06-07T06:09:23.618Z,2.80
2023-06-07T06:10:23.605Z,3.50
2023-06-07T06:11:23.605Z,3.10
2023-06-07T06:12:23.599Z,2.90
2023-06-07T06:13:23.608Z,2.80
2023-06-07T06:14:23.604Z,2.90
2023-06-07T06:15:23.581Z,3.30
2023-06-07T06:16:23.565Z,2.90
2023-06-07T06:17:23.543Z,3.10
2023-06-07T06:18:23.524Z,3.00
2023-06-07T06:19:23.503Z,2.80
2023-06-07T06:20:23.495Z,3.60
2023-06-07T06:21:23.501Z,3.00
2023-06-07T06:22:23.466Z,3.50
2023-06-07T06:23:23.487Z,2.50
2023-06-07T06:24:23.542Z,2.80
2023-06-07T06:25:23.485Z,3.10
2023-06-07T06:26:23.425Z,2.90
2023-06-07T06:27:23.441Z,3.10
2023-06-07T06:28:23.407Z,3.00
2023-06-07T06:29:23.399Z,2.90
2023-06-07T06:30:23.388Z,2.90
2023-06-07T06:31:23.481Z,3.20
2023-06-07T06:32:23.399Z,2.50
2023-06-07T06:33:23.351Z,2.40
2023-06-07T06:34:23.347Z,3.00
2023-06-07T06:35:23.355Z,3.40
2023-06-07T06:36:23.375Z,3.20
2023-06-07T06:37:23.315Z,3.20
2023-06-07T06:38:23.403Z,2.70
2023-06-07T06:39:23.290Z,3.00
2023-06-07T06:40:23.283Z,3.10
2023-06-07T06:41:23.264Z,3.30
2023-06-07T06:42:23.259Z,2.70
2023-06-07T06:43:23.272Z,2.80
2023-06-07T06:44:23.227Z,3.30
2023-06-07T06:45:23.230Z,3.10
2023-06-07T06:46:23.439Z,3.10
2023-06-07T06:47:23.288Z,2.80
2023-06-07T06:48:23.185Z,3.30
2023-06-07T06:49:23.173Z,3.00
2023-06-07T06:50:32.951Z,2.90
2023-06-07T06:51:23.164Z,2.90
2023-06-07T06:52:23.154Z,2.60
2023-06-07T06:53:23.127Z,3.10
2023-06-07T06:54:23.121Z,3.10
2023-06-07T06:55:23.110Z,3.30
2023-06-07T06:56:23.310Z,3.10
2023-06-07T06:57:23.178Z,3.20
2023-06-07T06:58:23.090Z,3.00
2023-06-07T06:59:23.063Z,3.10
2023-06-07T07:00:23.059Z,3.20
2023-06-07T07:01:23.086Z,2.70
2023-06-07T07:02:23.166Z,3.50
2023-06-07T07:03:23.061Z,3.20
2023-06-07T07:04:23.068Z,3.30
2023-06-07T07:05:23.185Z,3.10
2023-06-07T07:06:22.993Z,3.10
2023-06-07T07:07:22.984Z,3.20
2023-06-07T07:08:23.056Z,3.30
2023-06-07T07:09:22.961Z,3.20
2023-06-07T07:10:22.955Z,2.70
2023-06-07T07:11:22.939Z,3.00
2023-06-07T07:12:22.930Z,2.80
2023-06-07T07:13:22.921Z,2.60
2023-06-07T07:14:22.916Z,3.10
2023-06-07T07:15:23.123Z,2.80
2023-06-07T07:16:22.923Z,3.00
2023-06-07T07:17:22.895Z,3.10
2023-06-07T07:18:22.907Z,3.40
2023-06-07T07:19:22.954Z,2.90
2023-06-07T07:20:22.840Z,3.10
2023-06-07T07:21:22.837Z,3.20
2023-06-07T07:22:22.825Z,2.90
2023-06-07T07:23:22.818Z,3.00
2023-06-07T07:24:22.843Z,3.20
2023-06-07T07:25:22.836Z,2.70
2023-06-07T07:26:22.808Z,2.90
2023-06-07T07:27:22.774Z,3.00
2023-06-07T07:28:22.768Z,3.10
2023-06-07T07:29:22.803Z,3.00
2023-06-07T07:30:22.788Z,3.30
2023-06-07T07:31:22.731Z,2.80
2023-06-07T07:32:22.732Z,3.00
2023-06-07T07:33:22.712Z,2.70
2023-06-07T07:34:22.730Z,2.50
2023-06-07T07:35:22.767Z,3.50
2023-06-07T07:36:22.687Z,3.00
2023-06-07T07:37:22.674Z,3.40
2023-06-07T07:38:22.658Z,3.70
2023-06-07T07:39:22.673Z,3.30
2023-06-07T07:40:22.702Z,3.20
2023-06-07T07:41:22.623Z,3.10
2023-06-07T07:42:22.616Z,3.50
2023-06-07T07:43:22.603Z,3.30
2023-06-07T07:44:22.589Z,3.30
2023-06-07T07:45:22.578Z,3.00
2023-06-07T07:46:22.601Z,3.70
2023-06-07T07:47:22.558Z,3.00
2023-06-07T07:48:22.546Z,2.90
2023-06-07T07:49:22.562Z,3.10
2023-06-07T07:50:22.666Z,3.20
2023-06-07T07:51:22.915Z,3.20
2023-06-07T07:52:22.968Z,3.40
2023-06-07T07:53:22.501Z,3.10
2023-06-07T07:54:22.486Z,3.20
2023-06-07T07:55:22.482Z,2.80
2023-06-07T07:56:22.465Z,3.10
2023-06-07T07:57:22.467Z,2.60
2023-06-07T07:58:22.442Z,3.40
2023-06-07T07:59:22.464Z,3.40
2023-06-07T08:00:22.472Z,3.40
2023-06-07T08:01:22.634Z,3.40
2023-06-07T08:02:22.459Z,3.60
2023-06-07T08:03:22.775Z,2.80
2023-06-07T08:04:22.395Z,3.20
2023-06-07T08:05:22.384Z,3.20
2023-06-07T08:06:22.365Z,3.10
2023-06-07T08:07:22.401Z,3.50
2023-06-07T08:08:22.641Z,3.10
2023-06-07T08:09:22.393Z,3.30
2023-06-07T08:10:22.619Z,3.20
2023-06-07T08:11:22.609Z,3.30
2023-06-07T08:14:49.379Z,3.50
2023-06-07T08:15:49.381Z,2.90
2023-06-07T08:16:49.466Z,3.50
2023-06-07T08:17:51.364Z,3.00
2023-06-07T08:18:49.307Z,3.60
2023-06-07T08:19:49.286Z,3.00
2023-06-07T08:20:49.275Z,3.30
2023-06-07T08:21:49.258Z,2.70
2023-06-07T08:22:49.293Z,3.00
2023-06-07T08:23:49.319Z,3.00
2023-06-07T08:24:49.256Z,3.10
2023-06-07T08:25:49.214Z,2.80
2023-06-07T08:26:49.243Z,3.30
2023-06-07T08:27:49.203Z,3.10
2023-06-07T08:28:49.467Z,3.40
2023-06-07T08:30:40.876Z,3.10
2023-06-07T08:31:40.837Z,3.20
2023-06-07T08:32:40.757Z,2.90
2023-06-07T08:33:40.709Z,2.90
2023-06-07T08:34:40.709Z,2.80
2023-06-07T08:35:40.691Z,2.60
2023-06-07T08:36:40.688Z,2.90
2023-06-07T08:37:40.692Z,2.60
2023-06-07T08:38:40.707Z,2.70
2023-06-07T08:39:40.650Z,2.80
2023-06-07T08:40:40.670Z,2.80
2023-06-07T08:41:40.664Z,2.8
2023-06-07T08:42:40.646Z,2.50
2023-06-07T08:43:40.614Z,3.10
2023-06-07T08:44:40.890Z,2.90
2023-06-07T08:46:16.358Z,3.20
2023-06-07T08:47:16.188Z,3.00
2023-06-07T08:48:16.174Z,2.70
2023-06-07T08:49:16.120Z,3.00
2023-06-07T08:50:16.108Z,2.80
2023-06-07T08:51:16.104Z,2.80
2023-06-07T08:52:17.370Z,2.70
2023-06-07T08:53:16.084Z,2.80
2023-06-07T08:54:16.114Z,3.00
2023-06-07T08:55:16.104Z,2.80
2023-06-07T08:56:18.159Z,3.10
2023-06-07T08:57:16.118Z,2.60
2023-06-07T08:58:16.065Z,2.90
2023-06-07T08:59:16.279Z,2.60
2023-06-07T09:00:16.183Z,2.90
2023-06-07T09:01:43.576Z,2.70
2023-06-07T09:02:43.531Z,2.80
2023-06-07T09:03:43.514Z,2.90
2023-06-07T09:04:43.462Z,2.90
2023-06-07T09:05:43.446Z,2.70
2023-06-07T09:06:43.445Z,2.90
2023-06-07T09:07:43.440Z,2.80
2023-06-07T09:08:43.538Z,2.80
2023-06-07T09:09:43.576Z,3.10
2023-06-07T09:10:43.401Z,3.20
2023-06-07T09:11:43.391Z,2.90
2023-06-07T09:12:43.380Z,3.40
2023-06-07T09:13:43.384Z,3.00
2023-06-07T09:14:43.372Z,3.20
2023-06-07T09:15:43.356Z,2.90
2023-06-07T09:16:43.383Z,2.90
2023-06-07T09:17:43.561Z,2.70
2023-06-07T09:18:43.405Z,2.80
2023-06-07T09:19:43.348Z,3.00
2023-06-07T09:20:43.302Z,2.90
2023-06-07T09:21:43.304Z,2.80
2023-06-07T09:22:43.278Z,3.30
2023-06-07T09:23:43.313Z,3.00
2023-06-07T09:24:43.328Z,3.00
2023-06-07T09:25:43.323Z,3.10
2023-06-07T09:26:43.294Z,3.20
2023-06-07T09:27:43.240Z,2.50
2023-06-07T09:28:43.233Z,2.80
2023-06-07T09:29:43.226Z,3.70
2023-06-07T09:30:43.209Z,4.30
2023-06-07T09:31:43.278Z,3.00
2023-06-07T09:32:43.242Z,3.00
2023-06-07T09:33:43.203Z,3.40
2023-06-07T09:34:43.203Z,2.80
2023-06-07T09:35:43.190Z,2.90
2023-06-07T09:36:43.231Z,2.90
2023-06-07T09:37:43.207Z,2.90
2023-06-07T09:43:29.173Z,3.30
2023-06-07T09:44:29.009Z,3.20
2023-06-07T09:45:28.933Z,3.10
2023-06-07T09:46:28.968Z,3.00
2023-06-07T09:47:29.180Z,3.00
2023-06-07T09:48:29.005Z,2.90
2023-06-07T09:49:29.009Z,2.90
2023-06-07T09:50:28.983Z,2.70
2023-06-07T09:51:28.950Z,3.20
2023-06-07T09:52:30.706Z,3.00
2023-06-07T09:53:28.856Z,2.80
2023-06-07T09:54:28.963Z,3.0
2023-06-07T09:55:29.157Z,2.90
2023-06-07T09:56:29.131Z,3.30
2023-06-07T09:57:28.884Z,3.00
2023-06-07T09:58:28.823Z,3.20
2023-06-07T09:59:28.826Z,2.50
2023-06-07T10:00:29.167Z,3.20
2023-06-07T10:01:28.907Z,3.30
2023-06-07T10:02:28.840Z,2.90
2023-06-07T10:03:28.884Z,3.20
2023-06-07T10:04:28.804Z,2.90
2023-06-07T10:05:28.751Z,3.10
2023-06-07T10:06:28.724Z,3.40
2023-06-07T10:07:28.733Z,2.90
2023-06-07T10:08:28.729Z,2.80
2023-06-07T10:09:28.695Z,3.20
2023-06-07T10:10:28.723Z,3.20
2023-06-07T10:11:28.788Z,3.20
2023-06-07T10:12:28.722Z,3.10
2023-06-07T10:13:28.730Z,3.40
2023-06-07T10:14:28.681Z,3.10
2023-06-07T10:15:28.752Z,3.10
2023-06-07T10:16:28.697Z,2.90
2023-06-07T10:17:28.633Z,3.70
2023-06-07T10:18:28.746Z,2.80
2023-06-07T10:19:28.690Z,2.90
2023-06-07T10:20:28.597Z,3.10
2023-06-07T10:21:28.576Z,3.00
2023-06-07T10:22:28.596Z,3.00
2023-06-07T10:23:28.654Z,3.10
2023-06-07T10:24:28.629Z,3.30
2023-06-07T10:25:28.572Z,3.20
2023-06-07T10:26:28.530Z,2.90
2023-06-07T10:27:28.574Z,3.10
2023-06-07T10:28:28.535Z,2.90
2023-06-07T10:29:28.497Z,3.10
2023-06-07T10:30:28.491Z,3.30
2023-06-07T10:31:28.866Z,2.90
2023-06-07T10:32:28.881Z,3.40
2023-06-07T10:33:28.733Z,3.00
2023-06-07T10:34:28.455Z,3.40
2023-06-07T10:35:28.650Z,3.20
2023-06-07T10:36:28.560Z,3.10
2023-06-07T10:37:28.757Z,3.30
2023-06-07T10:40:23.500Z,3.30
2023-06-07T10:41:23.452Z,3.50
2023-06-07T10:42:23.419Z,3.50
2023-06-07T10:43:23.624Z,3.30
2023-06-07T10:44:23.315Z,3.20
2023-06-07T10:45:23.302Z,3.80
2023-06-07T10:46:23.371Z,3.30
2023-06-07T10:47:23.582Z,3.00
2023-06-07T10:48:23.292Z,2.90
2023-06-07T10:49:23.268Z,2.90
2023-06-07T10:50:23.284Z,3.00
2023-06-07T10:51:23.299Z,3.4
2023-06-07T10:52:23.511Z,2.70
2023-06-07T10:53:23.287Z,3.2
2023-06-07T10:54:23.221Z,3.30
2023-06-07T10:55:23.260Z,3.30
2023-06-07T10:56:23.203Z,3.10
2023-06-07T10:57:23.231Z,3.00
2023-06-07T10:58:23.235Z,3.40
2023-06-07T10:59:23.198Z,3.20
2023-06-07T11:00:23.535Z,3.40
2023-06-07T11:01:23.247Z,3.00
2023-06-07T11:02:23.671Z,3.00
2023-06-07T11:03:23.567Z,2.60
2023-06-07T11:04:23.493Z,3.00
2023-06-07T11:05:23.525Z,3.30
2023-06-07T11:06:23.374Z,3.10
2023-06-07T11:07:23.508Z,3.30
2023-06-07T11:08:23.270Z,3.10
2023-06-07T11:09:23.278Z,3.20
2023-06-07T11:10:23.434Z,3.00
2023-06-07T11:11:25.713Z,3.50
2023-06-07T11:12:23.325Z,3.50
2023-06-07T11:13:23.431Z,3.40
2023-06-07T11:14:23.427Z,3.60
2023-06-07T11:15:23.583Z,3.20
2023-06-07T11:16:23.491Z,3.6
2023-06-07T11:17:23.488Z,3.2
2023-06-07T11:18:23.529Z,3.2
2023-06-07T11:19:23.516Z,3.1
2023-06-07T11:20:23.609Z,3.2
2023-06-07T11:21:23.254Z,3.2
2023-06-07T11:22:23.397Z,3.2
2023-06-07T11:23:23.859Z,3.3
2023-06-07T11:24:23.506Z,3.2
2023-06-07T11:25:23.498Z,3.1
2023-06-07T11:26:23.411Z,3.0
2023-06-07T11:27:23.387Z,3.6
2023-06-07T11:28:23.400Z,3.10
2023-06-07T11:29:23.459Z,3.1
2023-06-07T11:30:23.477Z,3.0
2023-06-07T11:31:22.937Z,3.1
2023-06-07T11:32:23.907Z,3.4
2023-06-07T11:33:23.678Z,2.9
2023-06-07T11:34:23.478Z,3.10
2023-06-07T11:35:23.518Z,3.30
2023-06-07T11:36:23.489Z,3.2
2023-06-07T11:37:23.475Z,3.2
2023-06-07T11:38:23.472Z,3.10
2023-06-07T11:39:23.468Z,3.2
2023-06-07T11:40:23.506Z,3.3
2023-06-07T11:41:23.474Z,3.2
2023-06-07T11:42:23.508Z,3.3
2023-06-07T11:43:23.467Z,2.9
2023-06-07T11:44:23.770Z,3.10
2023-06-07T11:45:23.481Z,3.30
2023-06-07T11:46:23.641Z,3.10
2023-06-07T11:47:23.583Z,2.80
2023-06-07T11:48:23.473Z,3.1
2023-06-07T11:49:23.439Z,2.8
2023-06-07T11:50:23.399Z,3.0
2023-06-07T11:51:23.528Z,3.1
2023-06-07T11:52:23.475Z,3.1
2023-06-07T11:53:22.788Z,3.00
2023-06-07T11:54:23.513Z,2.8
2023-06-07T11:55:23.731Z,2.90
2023-06-07T11:56:23.873Z,2.7
2023-06-07T11:57:23.574Z,2.9
2023-06-07T11:58:25.276Z,2.60
2023-06-07T11:59:23.440Z,2.7
2023-06-07T12:00:23.491Z,2.9
2023-06-07T12:01:22.682Z,2.7
2023-06-07T12:02:23.553Z,3.1
2023-06-07T12:03:23.145Z,2.6
2023-06-07T12:04:23.675Z,3.40
2023-06-07T12:05:22.720Z,2.50
2023-06-07T12:06:22.567Z,2.9
2023-06-07T12:07:24.614Z,2.9
2023-06-07T12:09:24.587Z,3.1
2023-06-07T12:10:22.950Z,3.1
2023-06-07T12:11:25.455Z,3.20
2023-06-07T12:12:24.681Z,3.20
2023-06-07T12:13:22.613Z,3.0
2023-06-07T12:14:22.467Z,2.9
2023-06-07T12:15:22.458Z,2.60
2023-06-07T12:16:22.569Z,2.8
2023-06-07T12:17:22.678Z,2.7
2023-06-07T12:18:22.428Z,2.90
2023-06-07T12:19:22.427Z,2.9
2023-06-07T12:20:22.408Z,3.1
2023-06-07T12:21:22.402Z,3.10
2023-06-07T12:22:22.391Z,3.2
2023-06-07T12:23:22.438Z,2.6
2023-06-07T12:24:22.412Z,2.9
2023-06-07T12:25:22.394Z,3.0
2023-06-07T12:26:22.371Z,2.9
2023-06-07T12:27:22.353Z,3.4
2023-06-07T12:28:22.351Z,3.00
2023-06-07T12:29:22.329Z,2.9
2023-06-07T12:30:22.321Z,3.4
2023-06-07T12:31:22.367Z,2.9
2023-06-07T12:32:22.334Z,3.2
2023-06-07T12:33:22.314Z,3.20
2023-06-07T12:34:22.282Z,2.90
2023-06-07T12:35:22.284Z,3.1
2023-06-07T12:36:22.277Z,3.0
2023-06-07T12:37:22.273Z,3.40
2023-06-07T12:38:22.255Z,3.2
2023-06-07T12:39:22.267Z,3.2
2023-06-07T12:40:22.228Z,3.00
2023-06-07T12:41:22.223Z,2.80
2023-06-07T12:42:22.213Z,3.20
2023-06-07T12:43:22.219Z,3.1
2023-06-07T12:44:22.268Z,3.4
2023-06-07T12:45:22.220Z,3.2
2023-06-07T12:46:22.240Z,2.9
2023-06-07T12:47:22.170Z,3.10
2023-06-07T12:48:22.186Z,3.3
2023-06-07T12:49:22.167Z,3.3
2023-06-07T12:50:22.133Z,3.5
2023-06-07T12:51:22.127Z,3.20
2023-06-07T12:52:22.117Z,3.10
2023-06-07T12:53:22.113Z,3.0
2023-06-07T12:54:22.119Z,3.40
2023-06-07T12:55:22.223Z,3.00
2023-06-07T12:56:22.081Z,3.10
2023-06-07T12:57:22.079Z,2.80
2023-06-07T12:58:22.071Z,3.50
2023-06-07T12:59:22.055Z,3.10
2023-06-07T13:00:22.091Z,3.20
2023-06-07T13:01:22.141Z,3.50
2023-06-07T13:02:22.059Z,3.10
2023-06-07T13:03:22.092Z,3.2
2023-06-07T13:04:22.010Z,2.9
2023-06-07T13:05:22.118Z,3.30
2023-06-07T13:06:22.173Z,3.1
2023-06-07T13:07:21.979Z,3.30
2023-06-07T13:08:21.965Z,3.10
2023-06-07T13:09:21.959Z,3.20
2023-06-07T13:10:21.956Z,3.4
2023-06-07T13:11:21.974Z,3.4
2023-06-07T13:12:21.942Z,3.30
2023-06-07T13:13:21.922Z,3.3
2023-06-07T13:14:21.912Z,3.1
2023-06-07T13:15:21.908Z,3.50
2023-06-07T13:16:22.012Z,3.40
2023-06-07T13:17:22.040Z,3.6
2023-06-07T13:18:21.881Z,3.20
2023-06-07T13:19:21.870Z,3.4
2023-06-07T13:20:21.860Z,3.4
2023-06-07T13:21:22.153Z,3.2
2023-06-07T13:22:21.848Z,3.8
2023-06-07T13:23:21.843Z,3.1
2023-06-07T13:24:21.823Z,3.7
2023-06-07T13:25:21.814Z,3.40
2023-06-07T13:26:21.802Z,3.3
2023-06-07T13:27:21.924Z,3.30
2023-06-07T13:28:21.917Z,3.70
2023-06-07T13:29:21.772Z,3.3
2023-06-07T13:30:21.763Z,3.5
2023-06-07T13:31:21.794Z,3.1
2023-06-07T13:32:21.848Z,3.1
2023-06-07T13:33:21.735Z,3.2
2023-06-07T13:34:21.731Z,3.4